createdAt,value
2019-05-03T00:01:57.786Z,14.97
2019-05-03T00:04:26.258Z,14.63
2019-05-03T00:06:54.465Z,13.97
2019-05-03T00:09:22.919Z,15.40
2019-05-03T00:11:52.836Z,15.53
2019-05-03T00:14:21.814Z,16.57
2019-05-03T00:16:52.256Z,16.30
2019-05-03T00:19:21.911Z,16.40
2019-05-03T00:21:52.487Z,16.73
2019-05-03T00:24:22.632Z,16.63
2019-05-03T00:26:51.647Z,15.53
2019-05-03T00:29:21.875Z,16.13
2019-05-03T00:31:51.717Z,17.17
2019-05-03T00:34:38.359Z,16.87
2019-05-03T00:37:13.638Z,16.70
2019-05-03T00:39:52.651Z,16.13
2019-05-03T00:42:22.507Z,17.10
2019-05-03T00:44:51.660Z,16.57
2019-05-03T00:47:22.026Z,16.83
2019-05-03T00:49:51.731Z,16.93
2019-05-03T00:52:19.852Z,16.40
2019-05-03T00:54:48.061Z,16.03
2019-05-03T00:57:16.570Z,15.70
2019-05-03T00:59:44.794Z,16.80
2019-05-03T01:02:13.223Z,17.97
2019-05-03T01:04:42.673Z,16.60
2019-05-03T01:07:11.753Z,18.17
2019-05-03T01:09:40.069Z,17.67
2019-05-03T01:12:08.295Z,17.87
2019-05-03T01:14:38.286Z,18.10
2019-05-03T01:17:06.507Z,17.77
2019-05-03T01:19:34.707Z,17.10
2019-05-03T01:22:02.895Z,18.23
2019-05-03T01:24:32.280Z,19.00
2019-05-03T01:27:01.967Z,18.53
2019-05-03T01:29:32.079Z,17.27
2019-05-03T01:32:02.285Z,18.67
2019-05-03T01:34:32.632Z,18.47
2019-05-03T01:37:02.575Z,18.57
2019-05-03T01:39:31.738Z,18.60
2019-05-03T01:42:02.688Z,19.17
2019-05-03T01:44:32.522Z,19.60
2019-05-03T01:47:02.400Z,20.53
2019-05-03T01:49:38.707Z,18.87
2019-05-03T01:52:12.675Z,19.77
2019-05-03T01:54:42.668Z,19.50
2019-05-03T01:57:11.601Z,18.67
2019-05-03T01:59:40.116Z,19.63
2019-05-03T02:02:09.955Z,19.97
2019-05-03T02:04:48.990Z,21.43
2019-05-03T02:07:17.202Z,22.83
2019-05-03T02:09:45.394Z,22.80
2019-05-03T02:12:13.602Z,24.10
2019-05-03T02:14:42.260Z,23.73
2019-05-03T02:17:12.430Z,23.97
2019-05-03T02:19:42.173Z,23.47
2019-05-03T02:22:12.039Z,23.40
2019-05-03T02:24:42.200Z,23.03
2019-05-03T02:27:12.579Z,23.40
2019-05-03T02:29:41.848Z,22.93
2019-05-03T02:32:10.191Z,24.73
2019-05-03T02:34:43.558Z,24.13
2019-05-03T02:37:10.063Z,24.23
2019-05-03T02:39:38.543Z,22.20
2019-05-03T02:42:11.394Z,22.93
2019-05-03T02:44:37.639Z,21.50
2019-05-03T02:47:10.516Z,22.17
2019-05-03T02:49:45.437Z,21.90
2019-05-03T02:52:15.176Z,20.73
2019-05-03T02:54:46.243Z,21.00
2019-05-03T02:57:15.060Z,20.07
2019-05-03T02:59:45.299Z,21.13
2019-05-03T03:02:15.176Z,21.63
2019-05-03T03:04:45.399Z,21.10
2019-05-03T03:07:15.162Z,19.00
2019-05-03T03:09:45.248Z,18.90
2019-05-03T03:12:15.262Z,17.07
2019-05-03T03:14:45.573Z,18.23
2019-05-03T03:17:15.786Z,18.17
2019-05-03T03:19:46.262Z,16.57
2019-05-03T03:22:16.816Z,14.90
2019-05-03T03:24:48.097Z,14.23
2019-05-03T03:27:19.380Z,13.97
2019-05-03T03:29:50.665Z,15.97
2019-05-03T03:32:29.522Z,17.13
2019-05-03T03:35:12.387Z,17.20
2019-05-03T03:37:40.383Z,18.63
2019-05-03T03:40:09.039Z,18.50
2019-05-03T03:42:39.054Z,17.97
2019-05-03T03:45:08.458Z,16.83
2019-05-03T03:47:38.357Z,14.77
2019-05-03T03:50:07.106Z,13.97
2019-05-03T03:52:36.825Z,14.00
2019-05-03T03:55:06.579Z,12.30
2019-05-03T03:57:36.013Z,14.97
2019-05-03T04:00:07.060Z,12.87
2019-05-03T04:02:35.621Z,11.20
2019-05-03T04:05:05.546Z,10.23
2019-05-03T04:07:36.175Z,9.70
2019-05-03T04:10:07.339Z,9.47
2019-05-03T04:12:35.529Z,9.27
2019-05-03T04:15:09.723Z,9.20
2019-05-03T04:17:56.833Z,9.80
2019-05-03T04:20:27.310Z,8.63
2019-05-03T04:22:56.089Z,9.67
2019-05-03T04:25:26.319Z,9.97
2019-05-03T04:27:56.044Z,11.83
2019-05-03T04:30:25.679Z,11.77
2019-05-03T04:32:56.470Z,12.43
2019-05-03T04:35:26.567Z,12.67
2019-05-03T04:37:55.880Z,13.23
2019-05-03T04:40:26.037Z,12.67
2019-05-03T04:42:55.524Z,12.53
2019-05-03T04:45:25.641Z,11.40
2019-05-03T04:47:56.163Z,11.57
2019-05-03T04:50:25.459Z,10.77
2019-05-03T04:52:56.587Z,10.57
2019-05-03T04:55:26.576Z,11.90
2019-05-03T04:57:56.120Z,10.20
2019-05-03T05:00:25.586Z,10.30
2019-05-03T05:02:55.164Z,10.07
2019-05-03T05:05:26.118Z,10.00
2019-05-03T05:07:55.783Z,10.30
2019-05-03T05:10:25.901Z,10.23
2019-05-03T05:12:55.180Z,9.07
2019-05-03T05:15:26.030Z,9.83
2019-05-03T05:17:56.302Z,9.33
2019-05-03T05:20:38.948Z,9.00
2019-05-03T05:23:07.435Z,8.63
2019-05-03T05:25:37.266Z,7.70
2019-05-03T05:28:18.805Z,7.43
2019-05-03T05:30:47.313Z,7.17
2019-05-03T05:33:21.690Z,8.53
2019-05-03T05:35:51.669Z,7.97
2019-05-03T05:38:20.236Z,7.80
2019-05-03T05:40:48.706Z,7.60
2019-05-03T05:43:16.908Z,7.50
2019-05-03T05:45:45.085Z,8.13
2019-05-03T05:48:17.870Z,7.57
2019-05-03T05:50:46.075Z,8.40
2019-05-03T05:53:15.268Z,7.60
2019-05-03T05:55:50.990Z,8.17
2019-05-03T05:58:25.718Z,8.07
2019-05-03T06:00:55.188Z,8.17
2019-05-03T06:03:25.131Z,6.90
2019-05-03T06:05:55.084Z,7.27
2019-05-03T06:08:30.653Z,8.17
2019-05-03T06:11:01.734Z,7.90
2019-05-03T06:13:37.560Z,7.17
2019-05-03T06:16:16.409Z,7.47
2019-05-03T06:18:46.232Z,8.20
2019-05-03T06:21:16.406Z,8.10
2019-05-03T06:23:46.259Z,7.63
2019-05-03T06:26:34.529Z,8.13
2019-05-03T06:29:04.609Z,7.47
2019-05-03T06:31:44.596Z,7.70
2019-05-03T06:34:14.831Z,6.73
2019-05-03T06:36:44.965Z,7.13
2019-05-03T06:39:15.081Z,8.40
2019-05-03T06:41:44.547Z,9.33
2019-05-03T06:44:14.464Z,11.17
2019-05-03T06:46:45.597Z,10.00
2019-05-03T06:49:15.253Z,8.70
2019-05-03T06:51:45.657Z,6.13
2019-05-03T06:54:15.546Z,5.80
2019-05-03T06:56:45.257Z,6.60
2019-05-03T06:59:15.298Z,7.03
2019-05-03T07:01:47.777Z,5.60
2019-05-03T07:04:20.352Z,4.20
2019-05-03T07:06:55.935Z,3.80
2019-05-03T07:09:25.782Z,4.03
2019-05-03T07:11:55.563Z,3.60
2019-05-03T07:14:24.698Z,3.93
2019-05-03T07:16:53.002Z,3.83
2019-05-03T07:19:21.489Z,3.90
2019-05-03T07:21:49.686Z,3.47
2019-05-03T07:24:17.879Z,3.73
2019-05-03T07:26:46.050Z,2.70
2019-05-03T07:29:15.233Z,3.00
2019-05-03T07:31:44.686Z,3.37
2019-05-03T07:34:13.110Z,3.23
2019-05-03T07:36:41.565Z,3.07
2019-05-03T07:39:09.925Z,3.10
2019-05-03T07:41:38.430Z,3.27
2019-05-03T07:44:06.607Z,3.07
2019-05-03T07:46:34.961Z,2.73
2019-05-03T07:49:05.058Z,3.00
2019-05-03T07:51:34.832Z,3.20
2019-05-03T07:54:04.721Z,2.77
2019-05-03T07:56:35.610Z,2.90
2019-05-03T07:59:06.482Z,3.57
2019-05-03T08:01:36.537Z,3.00
2019-05-03T08:04:05.658Z,3.20
2019-05-03T08:06:34.608Z,3.10
2019-05-03T08:09:04.868Z,3.50
2019-05-03T08:11:35.058Z,3.20
2019-05-03T08:14:05.814Z,3.10
2019-05-03T08:16:35.331Z,2.17
2019-05-03T08:19:04.878Z,2.67
2019-05-03T08:21:37.478Z,2.87
2019-05-03T08:24:04.549Z,3.07
2019-05-03T08:26:34.863Z,2.87
2019-05-03T08:29:15.162Z,3.30
2019-05-03T08:31:45.450Z,3.00
2019-05-03T08:34:15.467Z,2.60
2019-05-03T08:36:54.841Z,3.10
2019-05-03T08:39:25.259Z,3.00
2019-05-03T08:42:04.786Z,2.80
2019-05-03T08:44:35.170Z,2.67
2019-05-03T08:47:05.073Z,3.13
2019-05-03T08:49:34.757Z,3.17
2019-05-03T08:52:05.238Z,3.13
2019-05-03T08:54:34.736Z,3.03
2019-05-03T08:57:02.870Z,3.30
2019-05-03T08:59:32.726Z,3.40
2019-05-03T09:02:05.199Z,3.50
2019-05-03T09:04:37.370Z,3.40
2019-05-03T09:07:01.708Z,3.10
2019-05-03T09:09:34.869Z,3.30
2019-05-03T09:12:04.687Z,3.43
2019-05-03T09:14:42.516Z,3.20
2019-05-03T09:17:04.934Z,3.13
2019-05-03T09:19:34.746Z,3.27
2019-05-03T09:22:05.954Z,2.30
2019-05-03T09:24:34.993Z,2.60
2019-05-03T09:27:05.062Z,2.53
2019-05-03T09:29:42.538Z,2.47
2019-05-03T09:32:05.166Z,2.50
2019-05-03T09:34:35.113Z,2.63
2019-05-03T09:37:04.820Z,2.50
2019-05-03T09:39:35.324Z,2.03
2019-05-03T09:42:04.703Z,2.63
2019-05-03T09:44:35.054Z,2.60
2019-05-03T09:47:05.691Z,2.87
2019-05-03T09:49:34.771Z,2.37
2019-05-03T09:52:08.065Z,3.10
2019-05-03T09:54:37.702Z,2.50
2019-05-03T09:57:06.254Z,2.37
2019-05-03T09:59:35.025Z,2.30
2019-05-03T10:02:04.882Z,2.70
2019-05-03T10:04:33.410Z,2.60
2019-05-03T10:07:01.585Z,2.20
2019-05-03T10:09:29.787Z,2.30
2019-05-03T10:11:58.331Z,2.43
2019-05-03T10:14:26.823Z,2.50
2019-05-03T10:16:59.350Z,2.50
2019-05-03T10:19:37.026Z,2.37
2019-05-03T10:21:57.454Z,2.70
2019-05-03T10:24:25.660Z,2.30
2019-05-03T10:26:55.215Z,2.83
2019-05-03T10:29:25.112Z,2.57
2019-05-03T10:31:57.733Z,2.53
2019-05-03T10:34:26.186Z,2.43
2019-05-03T10:36:54.909Z,2.83
2019-05-03T10:39:23.299Z,2.70
2019-05-03T10:41:51.478Z,2.90
2019-05-03T10:44:20.348Z,3.00
2019-05-03T10:46:48.522Z,2.43
2019-05-03T10:49:16.731Z,2.73
2019-05-03T10:51:46.823Z,3.03
2019-05-03T10:54:15.023Z,2.63
2019-05-03T10:56:56.702Z,3.20
2019-05-03T10:59:25.015Z,3.07
2019-05-03T11:01:54.830Z,2.90
2019-05-03T11:04:23.401Z,2.47
2019-05-03T11:06:51.829Z,2.60
2019-05-03T11:09:20.047Z,2.73
2019-05-03T11:11:48.343Z,2.57
2019-05-03T11:14:16.777Z,2.67
2019-05-03T11:16:46.057Z,2.80
2019-05-03T11:19:14.662Z,2.50
2019-05-03T11:21:45.262Z,2.80
2019-05-03T11:24:14.721Z,2.50
2019-05-03T11:26:45.430Z,2.90
2019-05-03T11:29:15.382Z,2.67
2019-05-03T11:31:45.357Z,2.83
2019-05-03T11:34:22.244Z,2.90
2019-05-03T11:36:52.483Z,2.83
2019-05-03T11:39:20.689Z,3.10
2019-05-03T11:41:50.828Z,3.13
2019-05-03T11:44:36.872Z,2.87
2019-05-03T11:47:05.809Z,2.63
2019-05-03T11:49:34.847Z,2.90
2019-05-03T11:52:03.177Z,2.30
2019-05-03T11:54:31.349Z,2.63
2019-05-03T11:57:01.712Z,2.90
2019-05-03T11:59:30.263Z,2.53
2019-05-03T12:02:00.101Z,2.73
2019-05-03T12:04:28.546Z,2.60
2019-05-03T12:06:56.745Z,2.67
2019-05-03T12:09:24.938Z,2.70
2019-05-03T12:11:55.353Z,2.83
2019-05-03T12:14:24.508Z,2.27
2019-05-03T12:17:16.153Z,2.80
2019-05-03T12:19:30.076Z,2.83
2019-05-03T12:21:54.858Z,2.83
2019-05-03T12:24:26.178Z,2.70
2019-05-03T12:26:55.675Z,2.73
2019-05-03T12:29:24.588Z,2.67
2019-05-03T12:31:54.788Z,2.73
2019-05-03T12:34:22.879Z,2.67
2019-05-03T12:36:51.576Z,2.70
2019-05-03T12:39:26.260Z,2.93
2019-05-03T12:41:49.857Z,3.03
2019-05-03T12:44:18.043Z,2.57
2019-05-03T12:46:46.245Z,3.00
2019-05-03T12:49:15.493Z,3.10
2019-05-03T12:51:45.306Z,2.97
2019-05-03T12:54:15.210Z,3.30
2019-05-03T12:56:45.325Z,3.10
2019-05-03T12:59:17.847Z,2.87
2019-05-03T13:01:47.686Z,2.90
2019-05-03T13:04:20.333Z,3.27
2019-05-03T13:06:50.170Z,2.90
2019-05-03T13:09:18.351Z,3.00
2019-05-03T13:11:55.357Z,2.90
2019-05-03T13:14:18.095Z,3.07
2019-05-03T13:16:46.290Z,3.47
2019-05-03T13:19:15.194Z,2.73
2019-05-03T13:21:44.990Z,3.30
2019-05-03T13:24:22.809Z,2.90
2019-05-03T13:26:45.560Z,3.20
2019-05-03T13:29:15.297Z,3.60
2019-05-03T13:31:57.496Z,3.30
2019-05-03T13:34:15.573Z,2.93
2019-05-03T13:36:45.491Z,3.40
2019-05-03T13:39:14.605Z,3.13
2019-05-03T13:41:45.358Z,3.03
2019-05-03T13:44:13.095Z,3.07
2019-05-03T13:46:41.293Z,3.27
2019-05-03T13:49:09.506Z,3.40
2019-05-03T13:51:37.720Z,3.60
2019-05-03T13:54:05.883Z,3.23
2019-05-03T13:56:35.344Z,3.63
2019-05-03T13:59:04.652Z,3.10
2019-05-03T14:01:33.739Z,3.37
2019-05-03T14:04:01.914Z,3.03
2019-05-03T14:06:33.557Z,3.33
2019-05-03T14:09:01.738Z,3.40
2019-05-03T14:11:29.946Z,3.10
2019-05-03T14:13:58.133Z,3.30
2019-05-03T14:16:26.337Z,3.40
2019-05-03T14:18:56.153Z,3.10
2019-05-03T14:21:29.226Z,3.57
2019-05-03T14:24:10.245Z,3.40
2019-05-03T14:26:39.459Z,3.20
2019-05-03T14:29:07.995Z,3.50
2019-05-03T14:31:36.562Z,3.80
2019-05-03T14:34:05.983Z,3.13
2019-05-03T14:36:35.883Z,3.37
2019-05-03T14:39:09.482Z,3.27
2019-05-03T14:41:36.683Z,3.47
2019-05-03T14:44:05.092Z,3.50
2019-05-03T14:46:35.964Z,3.20
2019-05-03T14:49:05.343Z,3.20
2019-05-03T14:51:34.972Z,3.80
2019-05-03T14:54:05.364Z,3.50
2019-05-03T14:56:45.566Z,3.60
2019-05-03T14:59:30.495Z,3.77
2019-05-03T15:02:00.338Z,4.23
2019-05-03T15:04:28.803Z,3.00
2019-05-03T15:06:57.918Z,3.33
2019-05-03T15:09:26.677Z,3.83
2019-05-03T15:11:54.857Z,3.53
2019-05-03T15:14:25.011Z,3.63
2019-05-03T15:16:53.238Z,3.57
2019-05-03T15:19:21.422Z,3.60
2019-05-03T15:21:49.598Z,3.47
2019-05-03T15:24:18.766Z,2.80
2019-05-03T15:26:47.277Z,4.00
2019-05-03T15:29:15.658Z,4.20
2019-05-03T15:31:44.782Z,3.80
2019-05-03T15:34:15.088Z,3.77
2019-05-03T15:36:45.048Z,3.30
2019-05-03T15:39:15.264Z,3.90
2019-05-03T15:41:44.952Z,3.67
2019-05-03T15:44:20.397Z,3.90
2019-05-03T15:46:50.226Z,3.90
2019-05-03T15:49:18.742Z,3.87
2019-05-03T15:51:46.948Z,4.20
2019-05-03T15:54:15.377Z,4.23
2019-05-03T15:56:44.898Z,4.43
2019-05-03T15:59:14.866Z,4.37
2019-05-03T16:01:43.275Z,5.33
2019-05-03T16:04:11.457Z,5.10
2019-05-03T16:06:39.955Z,5.43
2019-05-03T16:09:08.167Z,5.10
2019-05-03T16:11:36.401Z,5.17
2019-05-03T16:14:04.882Z,6.10
2019-05-03T16:16:35.245Z,6.17
2019-05-03T16:19:05.283Z,6.03
2019-05-03T16:21:34.145Z,6.13
2019-05-03T16:24:04.979Z,6.07
2019-05-03T16:26:33.335Z,6.40
2019-05-03T16:29:12.542Z,6.37
2019-05-03T16:31:40.750Z,6.47
2019-05-03T16:34:09.211Z,6.83
2019-05-03T16:36:37.428Z,6.53
2019-05-03T16:39:06.862Z,7.33
2019-05-03T16:41:35.371Z,7.37
2019-05-03T16:44:03.742Z,6.10
2019-05-03T16:46:31.936Z,7.00
2019-05-03T16:49:00.390Z,6.60
2019-05-03T16:51:28.566Z,6.47
2019-05-03T16:53:56.783Z,7.13
2019-05-03T16:56:24.974Z,7.03
2019-05-03T16:58:54.983Z,6.93
2019-05-03T17:01:24.441Z,7.20
2019-05-03T17:03:54.984Z,6.70
2019-05-03T17:06:40.042Z,6.60
2019-05-03T17:09:09.891Z,7.37
2019-05-03T17:11:38.094Z,6.97
2019-05-03T17:14:06.292Z,7.20
2019-05-03T17:16:34.578Z,7.10
2019-05-03T17:19:02.754Z,6.80
2019-05-03T17:21:30.962Z,8.73
2019-05-03T17:23:59.382Z,7.17
2019-05-03T17:26:27.871Z,6.97
2019-05-03T17:28:56.058Z,7.17
2019-05-03T17:31:24.412Z,7.10
2019-05-03T17:33:54.474Z,7.80
2019-05-03T17:36:22.744Z,7.03
2019-05-03T17:38:52.562Z,7.77
2019-05-03T17:41:25.554Z,8.27
2019-05-03T17:43:55.584Z,7.50
2019-05-03T17:46:25.464Z,7.53
2019-05-03T17:48:54.678Z,6.93
2019-05-03T17:51:39.790Z,7.03
2019-05-03T17:54:18.733Z,7.07
2019-05-03T17:56:55.164Z,7.60
2019-05-03T17:59:25.166Z,6.83
2019-05-03T18:02:11.408Z,6.60
2019-05-03T18:04:41.256Z,6.53
2019-05-03T18:07:26.359Z,6.77
2019-05-03T18:09:56.506Z,6.90
2019-05-03T18:12:24.692Z,6.27
2019-05-03T18:14:52.903Z,6.60
2019-05-03T18:17:21.342Z,7.37
2019-05-03T18:19:49.526Z,6.23
2019-05-03T18:22:17.710Z,7.07
2019-05-03T18:24:45.917Z,7.00
2019-05-03T18:27:15.012Z,6.80
2019-05-03T18:29:44.919Z,7.27
2019-05-03T18:32:14.724Z,7.57
2019-05-03T18:34:45.228Z,7.30
2019-05-03T18:37:15.206Z,7.93
2019-05-03T18:39:45.261Z,8.67
2019-05-03T18:42:15.264Z,8.00
2019-05-03T18:44:50.783Z,8.03
2019-05-03T18:47:20.602Z,8.50
2019-05-03T18:49:48.810Z,8.77
2019-05-03T18:52:16.990Z,8.33
2019-05-03T18:54:45.211Z,8.33
2019-05-03T18:57:15.490Z,10.00
2019-05-03T18:59:44.971Z,9.40
2019-05-03T19:02:14.891Z,10.50
2019-05-03T19:04:45.299Z,10.57
2019-05-03T19:07:27.489Z,10.50
2019-05-03T19:09:57.332Z,10.23
2019-05-03T19:12:36.338Z,10.17
2019-05-03T19:15:06.830Z,9.53
2019-05-03T19:17:45.619Z,9.77
2019-05-03T19:20:16.314Z,9.50
2019-05-03T19:22:44.542Z,10.10
2019-05-03T19:25:14.836Z,9.50
2019-05-03T19:27:45.074Z,9.20
2019-05-03T19:30:14.884Z,10.20
2019-05-03T19:32:44.960Z,9.57
2019-05-03T19:35:13.157Z,9.40
2019-05-03T19:37:41.417Z,9.40
2019-05-03T19:40:10.202Z,8.97
2019-05-03T19:42:38.679Z,10.33
2019-05-03T19:45:07.568Z,9.93
2019-05-03T19:47:35.778Z,10.67
2019-05-03T19:50:06.284Z,10.20
2019-05-03T19:52:54.568Z,10.47
2019-05-03T19:55:23.095Z,9.43
2019-05-03T19:57:51.576Z,9.37
2019-05-03T20:00:19.995Z,9.43
2019-05-03T20:02:54.344Z,9.70
2019-05-03T20:05:25.220Z,9.83
2019-05-03T20:08:07.361Z,10.13
2019-05-03T20:10:35.544Z,9.90
2019-05-03T20:13:04.677Z,10.37
2019-05-03T20:15:33.050Z,10.30
2019-05-03T20:18:01.570Z,10.93
2019-05-03T20:20:30.014Z,11.10
2019-05-03T20:22:59.077Z,10.80
2019-05-03T20:25:27.695Z,11.10
2019-05-03T20:27:56.011Z,11.80
2019-05-03T20:30:25.464Z,11.57
2019-05-03T20:32:55.574Z,11.80
2019-05-03T20:35:25.158Z,10.97
2019-05-03T20:37:55.287Z,11.93
2019-05-03T20:40:25.421Z,11.13
2019-05-03T20:42:55.269Z,11.40
2019-05-03T20:45:25.090Z,11.53
2019-05-03T20:47:54.913Z,11.80
2019-05-03T20:50:24.773Z,11.83
2019-05-03T20:52:54.913Z,12.77
2019-05-03T20:55:23.193Z,11.87
2019-05-03T20:57:51.653Z,12.80
2019-05-03T21:00:22.184Z,11.87
2019-05-03T21:02:54.000Z,11.63
2019-05-03T21:05:29.646Z,11.83
2019-05-03T21:07:50.606Z,13.40
2019-05-03T21:10:18.978Z,11.97
2019-05-03T21:12:47.446Z,12.07
2019-05-03T21:15:26.453Z,13.47
2019-05-03T21:18:04.752Z,11.40
2019-05-03T21:20:36.871Z,11.97
2019-05-03T21:23:07.592Z,11.50
2019-05-03T21:26:02.629Z,11.67
2019-05-03T21:28:07.346Z,11.70
2019-05-03T21:30:35.543Z,11.80
2019-05-03T21:33:05.457Z,11.27
2019-05-03T21:35:41.456Z,12.20
2019-05-03T21:38:04.008Z,12.00
2019-05-03T21:40:32.482Z,12.83
2019-05-03T21:43:00.963Z,13.27
2019-05-03T21:45:31.075Z,13.30
2019-05-03T21:48:05.051Z,13.40
2019-05-03T21:50:35.219Z,12.77
2019-05-03T21:53:05.610Z,13.60
2019-05-03T21:55:35.316Z,14.27
2019-05-03T21:58:04.719Z,13.07
2019-05-03T22:00:54.560Z,13.83
2019-05-03T22:03:25.104Z,13.53
2019-05-03T22:05:55.954Z,13.43
2019-05-03T22:08:24.713Z,12.67
2019-05-03T22:10:55.275Z,11.73
2019-05-03T22:13:24.570Z,12.37
2019-05-03T22:16:06.798Z,12.37
2019-05-03T22:18:37.121Z,12.80
2019-05-03T22:21:09.645Z,12.90
2019-05-03T22:23:55.391Z,13.63
2019-05-03T22:26:41.885Z,13.13
2019-05-03T22:29:10.242Z,14.13
2019-05-03T22:31:38.454Z,13.67
2019-05-03T22:34:06.665Z,14.30
2019-05-03T22:36:35.098Z,14.13
2019-05-03T22:39:05.042Z,15.27
2019-05-03T22:41:34.776Z,15.10
2019-05-03T22:44:03.123Z,15.60
2019-05-03T22:46:31.583Z,16.47
2019-05-03T22:48:59.790Z,17.00
2019-05-03T22:51:27.980Z,16.37
2019-05-03T22:53:56.497Z,15.33
2019-05-03T22:56:24.989Z,15.10
2019-05-03T22:58:54.805Z,15.70
2019-05-03T23:01:23.178Z,16.37
2019-05-03T23:03:51.408Z,14.93
2019-05-03T23:06:22.647Z,14.40
2019-05-03T23:08:49.498Z,14.87
2019-05-03T23:11:17.710Z,14.97
2019-05-03T23:13:47.827Z,17.63
2019-05-03T23:16:16.037Z,16.10
2019-05-03T23:18:44.402Z,15.93
2019-05-03T23:21:15.197Z,16.10
2019-05-03T23:23:50.953Z,18.07
2019-05-03T23:26:19.164Z,17.17
2019-05-03T23:28:47.818Z,17.23
2019-05-03T23:31:16.294Z,17.80
2019-05-03T23:33:45.271Z,17.70
2019-05-03T23:36:15.444Z,18.13
2019-05-03T23:38:45.239Z,18.43
2019-05-03T23:41:15.303Z,20.73
2019-05-03T23:43:45.143Z,19.53
2019-05-03T23:46:14.895Z,20.23
2019-05-03T23:48:44.671Z,19.77
2019-05-03T23:51:14.931Z,19.60
2019-05-03T23:53:44.619Z,20.37
2019-05-03T23:56:17.062Z,21.77
2019-05-03T23:58:45.269Z,23.47
